• Join FlightAware (Why Join?)
  • Login
  • US Flag 
06:41PM EDT


 

Airport Tracker/Info


-or-


 

Live Flight TrackerFlight Track Log ✈ DAL776 ✈ 06-Jul-2013 ✈ KATL - KSRQ

Flight Track Log - Related Links

Times and Time Zones

All times are in EDT time to prevent confusion due to time zone crossing. See the DAL776 flight status page for this flight to view local times or setup timezone preferences in your user account.

Time Position Orientation Groundspeed Altitude Reporting Facility
EDT Latitude Longitude Course Direction KTS MPH feet Rate Location/Type
09:54PM 33.6333 -84.3667 194° South 207 238 3,100  Level Atlanta TRACON
09:55PM 33.6000 -84.3000 121° Southeast 260 299 6,400 3,300 Climbing Atlanta TRACON
09:56PM 33.3953 -84.2827 194° South  Level FlightAware Approximate
09:56PM 33.4914 -84.2781 170° South 270 311 11,900  Level Atlanta Center
09:57PM 33.2850 -84.3149 194° South  Level FlightAware Approximate
09:57PM 33.4142 -84.2903 188° South 276 318 14,700  Level Atlanta Center
09:58PM 33.1748 -84.3471 194° South  Level FlightAware Approximate
09:58PM 33.3222 -84.3197 195° South 314 361 16,200  Level Atlanta Center
09:59PM 33.0645 -84.3791 194° South  Level FlightAware Approximate
09:59PM 33.2197 -84.3492 194° South 366 421 18,500  Level Atlanta Center
10:00PM 33.1175 -84.3786 194° South 383 441 20,700 2,580 Climbing Atlanta Center
10:01PM 33.0067 -84.4103 193° South 397 457 23,700 2,400 Climbing Atlanta Center
10:02PM 32.8983 -84.4247 186° South 397 457 25,600 1,800 Climbing Atlanta Center
10:03PM 32.7833 -84.4169 177° South 397 457 27,300 1,560 Climbing Atlanta Center
10:04PM 32.6644 -84.3917 170° South 421 484 28,800 1,440 Climbing Atlanta Center
10:05PM 32.5436 -84.3689 171° South 434 499 30,200 1,380 Climbing Atlanta Center
10:06PM 32.4183 -84.3489 172° South 447 514 31,600 1,440 Climbing Atlanta Center
10:07PM 32.2889 -84.3264 172° South 460 529 33,100 1,740 Climbing Atlanta Center
10:08PM 32.1617 -84.3039 171° South 467 537 35,100 1,740 Climbing Atlanta Center
10:09PM 32.0900 -84.2903 171° South 464 534 35,800 1,500 Climbing Jacksonville Center
10:10PM 31.9650 -84.2689 172° South 484 557 37,500 1,440 Climbing Jacksonville Center
10:11PM 31.8378 -84.2450 171° South 474 545 38,700 720 Climbing Jacksonville Center
10:12PM 31.7106 -84.2236 172° South 468 539 39,000 120 Climbing Jacksonville Center
10:13PM 31.5814 -84.2022 172° South 468 539 39,000  Level Jacksonville Center
10:14PM 31.4481 -84.1808 172° South 468 539 39,000  Level Jacksonville Center
10:15PM 31.3208 -84.1572 171° South 468 539 39,000  Level Jacksonville Center
10:16PM 31.1917 -84.1239 168° South 473 544 39,000  Level Jacksonville Center
10:17PM 31.0669 -84.0811 164° South 473 544 39,000  Level Jacksonville Center
10:18PM 30.9442 -84.0358 162° South 467 537 39,000  Level Jacksonville Center
10:19PM 30.8150 -83.9956 165° South 473 544 39,000  Level Jacksonville Center
10:20PM 30.6900 -83.9531 164° South 473 544 39,000  Level Jacksonville Center
10:21PM 30.5653 -83.9083 163° South 473 544 39,000  Level Jacksonville Center
10:22PM 30.4589 -83.8711 163° South 459 528 39,000  Level Jacksonville Center
10:23PM 30.3319 -83.8289 164° South 459 528 39,000  Level Jacksonville Center
10:24PM 30.2069 -83.7867 164° South 459 528 39,000  Level Jacksonville Center
10:25PM 30.0800 -83.7422 163° South 471 542 39,000  Level Jacksonville Center
10:26PM 29.9528 -83.7006 164° South 471 542 39,000 -60 Level Jacksonville Center
10:27PM 29.8278 -83.6586 164° South 471 542 38,900  Descending Jacksonville Center
10:28PM 29.6986 -83.6194 165° South 471 542 39,000  Climbing Jacksonville Center
10:29PM 29.5736 -83.5756 163° South 471 542 39,000 -120 Level Jacksonville Center
10:30PM 29.4444 -83.5342 164° South 471 542 38,800 -840 Descending Jacksonville Center
10:31PM 29.3172 -83.4903 163° South 476 548 37,400 -2,040 Descending Jacksonville Center
10:32PM 29.1881 -83.4467 164° South 476 548 34,800 -3,300 Descending Jacksonville Center
10:33PM 29.0442 -83.4008 164° South 482 555 30,800 -3,900 Descending Jacksonville Center
10:34PM 28.9108 -83.3528 162° South 487 560 27,000 -3,180 Descending Jacksonville Center
10:35PM 28.7878 -83.3047 161° South 487 560 24,500 -2,400 Descending Jacksonville Center
10:37PM 28.5500 -83.2000 159° South 436 502 19,800 -2,280 Descending Tampa TRACON
10:38PM 28.4333 -83.1667 166° South 425 489 17,700 -2,040 Descending Tampa TRACON
10:39PM 28.3333 -83.1167 156° South 407 468 15,800 -1,980 Descending Tampa TRACON
10:40PM 28.2500 -83.0667 152° Southeast 389 448 14,000 -2,160 Descending Tampa TRACON
10:41PM 28.1500 -83.0167 156° South 378 435 11,800 -1,560 Descending Tampa TRACON
10:42PM 28.0667 -82.9833 161° South 316 364 10,900 -1,260 Descending Tampa TRACON
10:43PM 27.9833 -82.9500 161° South 289 333 9,200 -1,500 Descending Tampa TRACON
10:44PM 27.9167 -82.9167 156° South 282 325 7,800 -1,500 Descending Tampa TRACON
10:45PM 27.8333 -82.8833 161° South 276 318 6,300 -1,380 Descending Tampa TRACON
10:46PM 27.7667 -82.8500 156° South 270 311 5,100 -1,200 Descending Tampa TRACON
10:47PM 27.7000 -82.8167 156° South 262 302 3,900 -1,020 Descending Tampa TRACON
10:48PM 27.6500 -82.7833 149° Southeast 254 292 3,100 -540 Descending Tampa TRACON
10:49PM 27.5833 -82.7333 146° Southeast 223 257 2,900 -540 Descending Tampa TRACON
10:50PM 27.5500 -82.7000 138° Southeast 207 238 2,100 -420 Descending Tampa TRACON
10:51PM 27.5000 -82.6667 149° Southeast 182 209 2,100  Level Tampa TRACON